Time;durP1;ratioP1;P1;durP2;ratioP2;P2;SDS_P1;SDS_P2;PMS_P1;PMS_P2;Temp;Humidity;BMP_temperature;BMP_pressure;BME280_temperature;BME280_humidity;BME280_pressure;Samples;Min_cycle;Max_cycle;Signal;HPM_P1;HPM_P2
2022/08/02 00:01:06;;;;;;;7.08;2.85;;;;;;;21.16;72.04;100745.11;5132719;57;1139021;-64
2022/08/02 00:06:12;;;;;;;6.33;2.70;;;;;;;21.15;72.47;100745.28;5129611;57;1139109;-65
2022/08/02 00:11:18;;;;;;;4.10;2.80;;;;;;;21.14;73.12;100744.95;5130110;57;1139034;-64
2022/08/02 00:16:24;;;;;;;3.40;2.80;;;;;;;21.10;73.39;100747.16;5142480;57;1139015;-67
2022/08/02 00:21:29;;;;;;;3.40;3.20;;;;;;;21.09;73.90;100756.25;5068502;57;1139168;-64
2022/08/02 00:26:35;;;;;;;3.70;2.70;;;;;;;21.00;74.53;100756.84;5069237;57;1139068;-66
2022/08/02 00:31:41;;;;;;;3.05;2.85;;;;;;;20.95;74.69;100757.05;5118345;57;1139101;-65
2022/08/02 00:36:47;;;;;;;4.20;2.90;;;;;;;20.92;75.01;100756.92;5121896;57;1139008;-65
2022/08/02 00:41:54;;;;;;;4.15;2.75;;;;;;;20.84;75.40;100754.28;5114641;57;1139180;-66
2022/08/02 00:47:00;;;;;;;5.37;2.60;;;;;;;20.88;75.62;100766.36;5039418;58;1139059;-66
2022/08/02 00:52:06;;;;;;;9.75;3.10;;;;;;;20.94;75.99;100770.16;5039177;58;1139036;-63
2022/08/02 00:57:12;;;;;;;3.02;2.47;;;;;;;20.90;75.95;100774.25;5039139;58;1139057;-65
2022/08/02 01:02:17;;;;;;;5.10;2.42;;;;;;;20.94;76.16;100768.81;5077390;57;1138986;-65
2022/08/02 01:07:23;;;;;;;5.33;2.65;;;;;;;20.90;76.46;100773.73;5117481;57;1139226;-65
2022/08/02 01:12:29;;;;;;;3.60;2.15;;;;;;;20.91;76.52;100763.82;5117862;57;1139122;-64
2022/08/02 01:17:56;;;;;;;4.00;2.50;;;;;;;20.96;76.88;100760.06;5121681;57;1139095;-66
2022/08/02 01:23:21;;;;;;;6.90;2.35;;;;;;;20.94;76.75;100766.13;5121848;57;1139095;-65
2022/08/02 01:28:54;;;;;;;3.20;2.90;;;;;;;20.86;76.94;100765.70;5121753;57;1139085;-66
2022/08/02 01:34:34;;;;;;;4.05;2.50;;;;;;;20.80;77.11;100774.47;5144324;56;1139127;-64
2022/08/02 01:39:44;;;;;;;2.25;2.05;;;;;;;20.71;77.41;100774.20;5059517;58;1137042;-63
2022/08/02 01:44:53;;;;;;;2.83;2.02;;;;;;;20.65;77.57;100774.91;5055369;57;1137430;-66
2022/08/02 01:50:01;;;;;;;2.83;2.37;;;;;;;20.56;77.94;100792.95;5059503;58;1137052;-64
2022/08/02 01:55:35;;;;;;;2.65;2.12;;;;;;;20.46;78.57;100788.31;5059537;57;1136993;-64
2022/08/02 02:00:46;;;;;;;2.05;1.95;;;;;;;20.44;78.62;100778.24;5076056;57;1136898;-64
2022/08/02 02:05:56;;;;;;;2.17;2.08;;;;;;;20.42;78.98;100794.20;5152575;56;1134895;-64
2022/08/02 02:11:03;;;;;;;6.33;2.47;;;;;;;20.34;79.26;100788.32;5154996;57;1139235;-66
2022/08/02 02:16:11;;;;;;;2.80;2.60;;;;;;;20.30;79.42;100788.36;5143066;57;1139053;-63
2022/08/02 02:21:16;;;;;;;5.20;2.97;;;;;;;20.23;79.60;100784.69;5150708;57;1138984;-66
2022/08/02 02:26:24;;;;;;;2.45;2.25;;;;;;;20.25;79.88;100783.51;5150387;57;1139069;-65
2022/08/02 02:31:32;;;;;;;2.87;2.55;;;;;;;20.29;79.69;100782.66;5112067;57;1139017;-65
2022/08/02 02:36:43;;;;;;;2.55;2.45;;;;;;;20.13;79.67;100788.94;5154968;57;1138950;-65
2022/08/02 02:41:51;;;;;;;2.60;2.40;;;;;;;20.10;80.59;100800.02;5058994;58;1139034;-64
2022/08/02 02:46:58;;;;;;;3.47;2.62;;;;;;;19.99;80.28;100799.06;5155063;57;1138959;-65
2022/08/02 02:52:06;;;;;;;2.20;2.10;;;;;;;19.89;80.65;100801.93;5154909;57;1139147;-64
2022/08/02 02:57:13;;;;;;;2.02;1.92;;;;;;;19.92;81.13;100807.47;5137162;57;1139200;-64
2022/08/02 03:02:20;;;;;;;2.47;2.27;;;;;;;19.89;81.21;100808.64;5079490;57;1138952;-64
2022/08/02 03:07:27;;;;;;;7.53;2.25;;;;;;;19.85;81.51;100815.39;5154979;57;1138937;-63
2022/08/02 03:12:34;;;;;;;2.60;2.40;;;;;;;19.78;82.13;100818.91;5151833;57;1138971;-64
2022/08/02 03:17:45;;;;;;;2.90;2.42;;;;;;;19.62;82.95;100819.28;5130468;57;1139160;-66
2022/08/02 03:22:51;;;;;;;3.50;2.15;;;;;;;19.54;83.30;100823.83;5157702;56;1138944;-64
2022/08/02 03:27:57;;;;;;;2.47;2.27;;;;;;;19.50;84.34;100820.64;5176949;56;1139167;-65
2022/08/02 03:33:03;;;;;;;2.33;2.22;;;;;;;19.47;84.01;100820.94;5116814;57;1139086;-65
2022/08/02 03:38:11;;;;;;;3.77;2.25;;;;;;;19.48;84.23;100824.47;5066563;58;1139006;-67
2022/08/02 03:43:18;;;;;;;2.60;1.90;;;;;;;19.46;84.63;100831.34;5097369;57;1139016;-66
2022/08/02 03:48:25;;;;;;;2.80;2.50;;;;;;;19.51;84.70;100837.58;5128653;57;1139020;-66
2022/08/02 03:53:31;;;;;;;2.35;1.87;;;;;;;19.47;84.44;100849.61;5124784;57;1139037;-64
2022/08/02 03:58:38;;;;;;;2.20;2.00;;;;;;;19.22;85.33;100854.15;5138974;57;1139040;-66
2022/08/02 04:03:44;;;;;;;7.65;2.77;;;;;;;19.22;85.33;100854.15;5151331;57;1138981;-67
2022/08/02 04:08:51;;;;;;;2.05;1.82;;;;;;;19.26;85.53;100864.85;5150353;57;1139128;-65
2022/08/02 04:14:00;;;;;;;4.75;1.57;;;;;;;19.23;85.25;100874.09;5150362;57;1138959;-64
2022/08/02 04:19:09;;;;;;;4.80;1.82;;;;;;;19.22;85.40;100874.27;5149912;57;1138988;-64
2022/08/02 04:24:16;;;;;;;5.20;1.70;;;;;;;19.17;85.30;100878.77;5150670;57;1138988;-63
2022/08/02 04:29:23;;;;;;;3.84;1.72;;;;;;;19.08;85.41;100888.32;5147623;57;1139125;-64
2022/08/02 04:34:30;;;;;;;4.87;2.00;;;;;;;19.16;85.35;100894.52;5093545;57;1138967;-64
2022/08/02 04:39:36;;;;;;;5.55;1.60;;;;;;;19.17;85.21;100896.70;5066828;58;1138989;-64
2022/08/02 04:44:42;;;;;;;3.67;2.08;;;;;;;19.21;85.40;100901.58;5085321;57;1139279;-64
2022/08/02 04:49:48;;;;;;;2.25;2.10;;;;;;;19.21;85.40;100903.42;5241654;56;1138961;-63
2022/08/02 04:54:54;;;;;;;4.45;1.62;;;;;;;19.19;85.55;100911.63;5199845;56;1136954;-63
2022/08/02 05:00:00;;;;;;;8.90;2.42;;;;;;;19.16;85.86;100917.81;5155010;56;1136931;-66
2022/08/02 05:05:07;;;;;;;4.55;1.87;;;;;;;19.17;86.06;100927.54;5150669;57;1136964;-63
2022/08/02 05:10:13;;;;;;;7.97;2.17;;;;;;;19.09;85.85;100927.03;5084589;57;1136898;-66
2022/08/02 05:15:19;;;;;;;5.47;1.72;;;;;;;19.08;85.97;100939.27;5151005;57;1137005;-65
2022/08/02 05:20:25;;;;;;;6.83;1.70;;;;;;;19.16;85.96;100941.95;5150553;57;1137011;-66
2022/08/02 05:25:32;;;;;;;1.95;1.80;;;;;;;19.15;86.02;100941.11;5112260;57;1136958;-66
2022/08/02 05:30:37;;;;;;;6.78;2.80;;;;;;;19.13;86.36;100950.31;5204996;56;1137057;-63
2022/08/02 05:35:45;;;;;;;8.15;2.50;;;;;;;19.12;86.21;100956.17;5155098;56;1137166;-64
2022/08/02 05:40:51;;;;;;;9.18;2.10;;;;;;;19.18;86.34;100962.23;5155210;56;1137116;-63
2022/08/02 05:45:57;;;;;;;7.28;2.10;;;;;;;19.17;86.43;100967.77;5224710;56;1136945;-63
2022/08/02 05:51:11;;;;;;;5.20;2.05;;;;;;;19.16;86.44;100974.12;5236744;56;1136884;-62
2022/08/02 05:56:27;;;;;;;7.28;3.00;;;;;;;19.22;86.77;100979.69;5143014;57;1136936;-66
2022/08/02 06:01:39;;;;;;;7.78;2.08;;;;;;;19.35;86.55;100981.89;5141241;57;1137081;-64
2022/08/02 06:06:47;;;;;;;13.28;2.33;;;;;;;19.42;86.66;100983.39;5150959;56;1134860;-65
2022/08/02 06:11:54;;;;;;;10.78;2.45;;;;;;;19.45;86.08;100989.78;5150765;57;1141151;-66
2022/08/02 06:17:05;;;;;;;7.07;2.40;;;;;;;19.47;86.28;100989.95;5150799;57;1141205;-65
2022/08/02 06:22:14;;;;;;;11.05;2.05;;;;;;;19.49;86.01;100998.72;5145694;57;1138998;-64
2022/08/02 06:27:21;;;;;;;9.53;2.35;;;;;;;19.57;86.00;100998.71;5055159;58;1141202;-65
2022/08/02 06:32:28;;;;;;;3.22;1.72;;;;;;;19.64;85.82;100994.38;5057312;58;1139221;-65
2022/08/02 06:37:38;;;;;;;8.08;2.27;;;;;;;19.79;86.15;100993.71;5027688;58;1139051;-63
2022/08/02 06:43:05;;;;;;;9.13;2.37;;;;;;;20.08;84.82;100994.55;4997691;58;1138947;-65
2022/08/02 06:48:12;;;;;;;3.98;1.50;;;;;;;20.37;84.64;100986.81;4965461;58;1139063;-65
2022/08/02 06:53:17;;;;;;;9.73;2.22;;;;;;;20.65;82.36;100985.39;4998743;58;1138950;-63
2022/08/02 06:58:23;;;;;;;6.53;2.92;;;;;;;20.92;79.96;100991.36;4998583;58;1138989;-64
2022/08/02 07:03:33;;;;;;;11.40;2.27;;;;;;;21.05;76.74;100988.94;5071194;58;1138997;-64
2022/08/02 07:08:39;;;;;;;9.65;2.20;;;;;;;21.10;76.61;100989.73;5071180;58;1141363;-64
2022/08/02 07:13:45;;;;;;;4.12;1.55;;;;;;;21.28;75.16;100988.50;5071247;58;1138925;-66
2022/08/02 07:18:51;;;;;;;3.75;1.27;;;;;;;21.41;73.34;100987.41;5070428;58;1139065;-66
2022/08/02 07:23:56;;;;;;;6.67;1.10;;;;;;;21.41;67.84;100985.22;5071143;58;1138952;-63
2022/08/02 07:29:01;;;;;;;6.75;1.77;;;;;;;21.26;66.16;101000.45;5048243;58;1138956;-65
2022/08/02 07:34:07;;;;;;;6.15;1.87;;;;;;;21.24;67.92;100997.09;4995142;58;1138956;-65
2022/08/02 07:39:13;;;;;;;10.72;2.05;;;;;;;21.38;66.24;100990.98;4993684;59;1139171;-65
2022/08/02 07:44:20;;;;;;;6.80;1.42;;;;;;;21.63;66.88;100995.17;5150993;56;1141263;-67
2022/08/02 07:49:27;;;;;;;7.85;1.82;;;;;;;21.85;67.24;100992.13;5142470;57;1138989;-67
2022/08/02 07:54:33;;;;;;;10.22;1.42;;;;;;;22.01;65.69;100977.72;5142755;57;1138934;-64
2022/08/02 07:59:39;;;;;;;4.42;1.67;;;;;;;22.30;64.06;100974.27;5142406;57;1141063;-64
2022/08/02 08:04:44;;;;;;;5.30;2.27;;;;;;;22.46;64.68;100987.55;5234867;56;1138796;-64
2022/08/02 08:09:50;;;;;;;4.30;1.35;;;;;;;22.62;62.66;100991.92;5236624;56;1138966;-65
2022/08/02 08:14:56;;;;;;;6.40;1.52;;;;;;;22.94;63.40;100986.69;5236681;56;1138955;-64
2022/08/02 08:20:03;;;;;;;5.42;1.98;;;;;;;23.13;61.23;100982.89;5236677;56;1138987;-64
2022/08/02 08:25:10;;;;;;;6.42;1.62;;;;;;;23.11;59.59;100990.34;5237183;56;1139075;-67
2022/08/02 08:30:16;;;;;;;4.55;1.40;;;;;;;23.21;60.39;100987.36;5240865;56;1139098;-65
2022/08/02 08:35:22;;;;;;;9.83;1.70;;;;;;;23.55;59.15;100984.52;5241970;56;1139009;-64
2022/08/02 08:40:28;;;;;;;20.50;2.80;;;;;;;23.46;56.53;100987.83;5216330;56;1139004;-66
2022/08/02 08:45:33;;;;;;;6.55;1.62;;;;;;;23.39;56.07;100978.81;5092915;56;1141104;-63
2022/08/02 08:50:50;;;;;;;3.17;1.35;;;;;;;23.28;55.61;100991.47;5068394;57;1138973;-66
2022/08/02 08:55:57;;;;;;;6.37;1.10;;;;;;;23.11;52.63;100988.98;5068584;57;1137001;-64
2022/08/02 09:01:02;;;;;;;3.27;1.40;;;;;;;23.11;53.95;100990.84;5100767;57;1136918;-67
2022/08/02 09:06:08;;;;;;;6.60;1.25;;;;;;;23.36;55.16;100991.36;5202797;56;1136936;-64
2022/08/02 09:11:21;;;;;;;1.72;1.00;;;;;;;23.58;54.36;100988.19;5202728;56;1136841;-65
2022/08/02 09:16:39;;;;;;;6.50;1.50;;;;;;;23.96;54.60;100989.60;5201564;56;1136928;-66
2022/08/02 09:21:45;;;;;;;4.53;1.22;;;;;;;24.20;51.77;100994.56;5207260;56;1137130;-66
2022/08/02 09:26:52;;;;;;;3.33;1.22;;;;;;;24.24;51.86;100992.86;5206795;56;1136871;-66
2022/08/02 09:32:05;;;;;;;7.10;1.45;;;;;;;24.37;52.58;100985.67;5171467;56;1136941;-67
2022/08/02 09:37:27;;;;;;;5.72;1.20;;;;;;;24.67;52.52;100988.14;5131803;57;1137319;-67
2022/08/02 09:42:33;;;;;;;4.37;0.97;;;;;;;24.78;50.77;100990.28;5226181;56;1138918;-64
2022/08/02 09:47:38;;;;;;;4.33;1.35;;;;;;;24.85;49.06;100997.41;5242666;56;1139004;-64
2022/08/02 09:52:44;;;;;;;13.43;1.40;;;;;;;24.81;49.49;100987.17;5242746;56;1138958;-66
2022/08/02 09:57:50;;;;;;;3.60;1.37;;;;;;;24.94;49.81;100993.20;5242853;56;1141038;-65
2022/08/02 10:03:12;;;;;;;4.28;1.10;;;;;;;25.14;50.52;100990.91;5239733;56;1139167;-67
2022/08/02 10:08:19;;;;;;;3.10;1.57;;;;;;;25.27;49.12;100979.28;5238248;56;1139010;-65
2022/08/02 10:13:33;;;;;;;3.92;1.20;;;;;;;25.28;48.36;100967.92;5238179;56;1138985;-64
2022/08/02 10:18:39;;;;;;;5.40;1.12;;;;;;;25.40;47.14;100967.64;5238170;56;1139053;-67
2022/08/02 10:23:46;;;;;;;3.42;1.77;;;;;;;25.43;48.33;100959.11;5242516;56;1138998;-64
2022/08/02 10:28:54;;;;;;;6.50;1.82;;;;;;;25.44;46.47;100962.14;5220641;56;1139076;-66
2022/08/02 10:34:02;;;;;;;11.30;1.10;;;;;;;25.31;46.53;100960.75;5225154;56;1139035;-67
2022/08/02 10:39:09;;;;;;;2.50;0.95;;;;;;;25.33;47.74;100960.88;5238192;56;1141094;-64
2022/08/02 10:44:32;;;;;;;5.85;1.47;;;;;;;25.59;48.57;100953.30;5167605;56;1138972;-66
2022/08/02 10:49:55;;;;;;;3.15;1.17;;;;;;;25.90;48.89;100940.53;5071373;58;1139049;-65
2022/08/02 10:55:13;;;;;;;3.42;1.00;;;;;;;26.25;46.18;100937.90;4941913;58;1139000;-66
2022/08/02 11:00:27;;;;;;;1.30;1.00;;;;;;;26.37;47.76;100931.85;5150613;56;1139057;-67
2022/08/02 11:05:35;;;;;;;9.70;4.95;;;;;;;26.50;43.89;100926.39;5150647;57;1138932;-69
2022/08/02 11:10:42;;;;;;;9.10;1.30;;;;;;;26.34;45.58;100931.75;5150457;57;1139160;-67
2022/08/02 11:15:59;;;;;;;7.83;1.05;;;;;;;26.43;44.71;100919.61;5150405;57;1139233;-68
2022/08/02 11:21:28;;;;;;;4.55;1.55;;;;;;;26.60;43.66;100931.66;5152563;57;1139006;-69
2022/08/02 11:26:38;;;;;;;2.15;1.40;;;;;;;26.59;44.03;100927.28;5154731;57;1136936;-69
2022/08/02 11:31:47;;;;;;;5.67;1.47;;;;;;;26.76;46.03;100919.50;5080732;57;1136897;-66
2022/08/02 11:36:53;;;;;;;4.58;1.37;;;;;;;27.09;46.01;100911.23;5071132;57;1136860;-64
2022/08/02 11:42:01;;;;;;;2.90;1.40;;;;;;;27.15;41.98;100927.19;5070594;57;1136881;-64
2022/08/02 11:47:07;;;;;;;4.53;1.42;;;;;;;27.15;42.85;100919.88;5066592;57;1136856;-65
2022/08/02 11:52:13;;;;;;;4.20;1.00;;;;;;;27.24;44.78;100921.80;5066673;58;1136975;-63
2022/08/02 11:57:21;;;;;;;2.85;1.30;;;;;;;27.56;44.56;100918.05;5066908;58;1136967;-65
2022/08/02 12:02:34;;;;;;;3.70;1.40;;;;;;;27.77;44.78;100910.58;5111323;57;1136925;-64
2022/08/02 12:07:40;;;;;;;5.80;2.10;;;;;;;27.75;43.58;100915.41;5151018;57;1136929;-67
2022/08/02 12:12:57;;;;;;;1.70;1.07;;;;;;;27.80;42.24;100908.78;5151074;57;1136958;-65
2022/08/02 12:23:31;;;;;;;3.90;1.05;;;;;;;28.07;41.81;100905.28;5239397;55;1141031;-63
2022/08/02 12:28:40;;;;;;;5.90;1.12;;;;;;;28.38;44.00;100894.31;5187760;56;1138998;-64
2022/08/02 12:33:54;;;;;;;4.83;1.27;;;;;;;28.38;44.00;100894.31;5071721;57;1139262;-66
2022/08/02 12:39:01;;;;;;;5.97;1.25;;;;;;;28.62;43.56;100897.46;5071616;57;1139107;-64
2022/08/02 12:44:16;;;;;;;1.82;0.88;;;;;;;28.87;41.93;100899.29;5069135;57;1139026;-65
2022/08/02 12:49:22;;;;;;;6.28;1.27;;;;;;;28.81;39.66;100890.14;5065966;58;1139230;-65
2022/08/02 12:54:33;;;;;;;1.72;0.88;;;;;;;28.66;38.70;100895.95;5064121;58;1139004;-63
2022/08/02 12:59:41;;;;;;;11.20;1.42;;;;;;;28.22;40.02;100893.55;5066709;58;1138945;-64
2022/08/02 13:04:47;;;;;;;3.77;1.10;;;;;;;28.00;41.40;100888.49;5150146;57;1141093;-67
2022/08/02 13:09:53;;;;;;;4.10;1.57;;;;;;;27.90;42.63;100881.91;5150867;57;1138936;-65
2022/08/02 13:14:59;;;;;;;9.75;1.42;;;;;;;28.10;43.22;100874.92;5055286;58;1139261;-65
2022/08/02 13:20:06;;;;;;;3.77;1.30;;;;;;;28.55;42.50;100879.03;5151746;57;1138991;-64
2022/08/02 13:25:12;;;;;;;2.15;1.05;;;;;;;28.47;41.31;100877.14;5155061;57;1139219;-63
2022/08/02 13:30:19;;;;;;;2.33;1.25;;;;;;;28.10;40.31;100871.68;5109873;57;1139290;-66
2022/08/02 13:35:25;;;;;;;5.65;1.67;;;;;;;28.23;42.69;100859.85;5071437;58;1138952;-66
2022/08/02 13:40:30;;;;;;;13.18;1.50;;;;;;;28.21;41.52;100864.68;5116422;56;1139067;-65
2022/08/02 13:45:36;;;;;;;9.08;1.67;;;;;;;28.11;41.59;100858.91;5063471;57;1141085;-66
2022/08/02 13:50:41;;;;;;;3.60;1.30;;;;;;;28.12;41.73;100849.67;5049040;58;1138991;-65
2022/08/02 13:55:47;;;;;;;6.92;1.17;;;;;;;28.23;41.68;100841.64;5048800;58;1139118;-63
2022/08/02 14:00:53;;;;;;;1.80;1.10;;;;;;;28.29;40.45;100853.48;5063220;57;1139008;-63
2022/08/02 14:05:58;;;;;;;9.63;1.70;;;;;;;28.01;39.97;100853.98;5117429;57;1139202;-64
2022/08/02 14:11:04;;;;;;;8.95;1.00;;;;;;;27.86;41.76;100846.70;5117199;57;1138977;-64
2022/08/02 14:16:10;;;;;;;6.40;1.07;;;;;;;27.88;42.15;100846.80;5118354;57;1139151;-65
2022/08/02 14:21:16;;;;;;;3.62;1.20;;;;;;;27.81;41.16;100839.74;5086209;57;1138994;-63
2022/08/02 14:26:21;;;;;;;2.80;1.32;;;;;;;27.67;42.25;100839.04;5042947;58;1139121;-63
2022/08/02 14:31:27;;;;;;;5.30;1.30;;;;;;;27.62;42.72;100832.11;5077827;57;1139048;-63
2022/08/02 14:36:32;;;;;;;9.43;2.02;;;;;;;27.59;42.98;100835.27;5121780;57;1139053;-65
2022/08/02 14:41:38;;;;;;;6.67;3.25;;;;;;;27.60;43.32;100832.33;5118216;57;1139005;-65
2022/08/02 14:46:43;;;;;;;9.53;1.55;;;;;;;27.61;43.28;100823.65;5039007;57;1139030;-63
2022/08/02 14:51:49;;;;;;;4.42;1.37;;;;;;;27.80;44.28;100823.16;5076724;57;1139212;-65
2022/08/02 14:56:55;;;;;;;4.12;0.82;;;;;;;28.19;43.57;100821.91;5046329;58;1136968;-66
2022/08/02 15:02:00;;;;;;;3.20;1.12;;;;;;;28.41;41.23;100823.12;5080607;57;1137080;-64
2022/08/02 15:07:06;;;;;;;6.17;1.00;;;;;;;28.47;39.33;100819.46;5124821;57;1137028;-65
2022/08/02 15:12:12;;;;;;;2.72;0.88;;;;;;;28.55;38.97;100816.97;5128984;57;1136957;-64
2022/08/02 15:17:18;;;;;;;1.90;1.15;;;;;;;28.73;40.20;100810.63;5133824;57;1136905;-64
2022/08/02 15:22:24;;;;;;;1.07;0.85;;;;;;;28.87;39.69;100817.08;5071118;57;1136949;-63
2022/08/02 15:27:30;;;;;;;2.92;1.35;;;;;;;29.04;37.23;100813.13;5114398;57;1136942;-66
2022/08/02 15:32:36;;;;;;;6.33;1.10;;;;;;;29.16;37.88;100807.20;5129230;57;1137047;-63
2022/08/02 15:37:42;;;;;;;7.97;0.80;;;;;;;29.15;36.04;100796.00;5130706;57;1137006;-65
2022/08/02 15:42:47;;;;;;;2.00;0.80;;;;;;;29.01;37.06;100797.28;5156754;56;1137127;-66
2022/08/02 15:47:54;;;;;;;1.02;0.98;;;;;;;28.98;37.31;100799.93;5206806;56;1137141;-64
2022/08/02 15:53:00;;;;;;;9.05;1.55;;;;;;;28.96;37.11;100788.97;5207072;56;1136922;-65
2022/08/02 15:58:07;;;;;;;5.00;1.00;;;;;;;28.99;37.35;100798.87;5187787;56;1137167;-66
2022/08/02 16:03:12;;;;;;;4.85;0.90;;;;;;;29.02;36.27;100794.86;5180732;56;1136923;-64
2022/08/02 16:08:18;;;;;;;16.73;1.30;;;;;;;28.84;37.81;100790.84;5206004;57;1137142;-65
2022/08/02 16:18:47;;;;;;;15.20;7.22;;;;;;;28.49;37.61;100789.30;5156303;56;1134861;-66
2022/08/02 16:23:55;;;;;;;25.12;19.32;;;;;;;28.43;37.57;100795.66;5156263;57;1141136;-64
2022/08/02 16:29:04;;;;;;;10.30;3.57;;;;;;;28.41;38.45;100796.44;5076956;57;1143115;-65
2022/08/02 16:34:10;;;;;;;5.55;1.25;;;;;;;28.35;37.86;100796.28;5167787;57;1141036;-65
2022/08/02 16:39:15;;;;;;;4.45;2.10;;;;;;;28.26;38.32;100799.56;5113035;57;1138980;-64
2022/08/02 16:44:22;;;;;;;5.80;1.90;;;;;;;28.30;38.58;100798.84;5129976;56;1139045;-66
2022/08/02 16:49:30;;;;;;;2.22;1.67;;;;;;;28.40;38.18;100799.69;5151583;56;1138991;-65
2022/08/02 16:54:37;;;;;;;3.05;1.40;;;;;;;28.43;38.11;100804.64;5065658;57;1138990;-65
2022/08/02 16:59:43;;;;;;;2.45;0.93;;;;;;;28.43;37.41;100804.64;5098907;57;1138920;-66
2022/08/02 17:04:48;;;;;;;5.85;1.60;;;;;;;28.36;37.35;100797.12;5110704;57;1138891;-64
2022/08/02 17:09:54;;;;;;;3.00;1.60;;;;;;;28.31;37.48;100799.16;5048593;57;1139008;-65
2022/08/02 17:15:01;;;;;;;2.30;1.20;;;;;;;28.26;37.61;100799.00;5087074;57;1139340;-65
2022/08/02 17:20:08;;;;;;;8.10;1.02;;;;;;;28.21;37.65;100798.04;5133131;57;1138956;-66
2022/08/02 17:25:16;;;;;;;18.65;2.12;;;;;;;28.06;38.36;100801.64;5070021;57;1138906;-66
2022/08/02 17:30:21;;;;;;;5.40;1.30;;;;;;;27.99;38.80;100795.73;5084431;57;1141020;-66
2022/08/02 17:35:28;;;;;;;7.05;1.72;;;;;;;27.94;38.48;100803.77;5063360;57;1139257;-65
2022/08/02 17:40:34;;;;;;;7.17;1.75;;;;;;;27.84;38.76;100803.44;5046799;58;1139214;-63
2022/08/02 17:45:39;;;;;;;5.42;1.42;;;;;;;27.74;39.22;100799.58;5100293;57;1138911;-66
2022/08/02 17:50:45;;;;;;;4.40;1.32;;;;;;;27.66;39.53;100799.33;5039218;58;1139017;-66
2022/08/02 17:55:51;;;;;;;3.72;1.60;;;;;;;27.62;40.04;100799.49;5043522;58;1139198;-66
2022/08/02 18:00:57;;;;;;;9.58;1.80;;;;;;;27.59;40.40;100806.73;5076695;57;1139152;-66
2022/08/02 18:06:04;;;;;;;43.25;10.03;;;;;;;27.50;40.76;100804.77;5097986;57;1138935;-66
2022/08/02 18:11:09;;;;;;;43.45;8.25;;;;;;;27.52;41.40;100813.54;5077952;57;1143141;-66
2022/08/02 18:16:14;;;;;;;27.90;5.87;;;;;;;27.47;41.81;100817.47;5060632;57;1141032;-64
2022/08/02 18:21:20;;;;;;;11.95;3.42;;;;;;;27.46;42.44;100819.88;5076174;57;1141194;-63
2022/08/02 18:26:27;;;;;;;12.95;5.78;;;;;;;27.41;42.52;100818.88;5094080;57;1141087;-65
2022/08/02 18:31:34;;;;;;;30.10;3.92;;;;;;;27.22;42.93;100817.97;5095592;57;1141022;-65
2022/08/02 18:36:39;;;;;;;11.50;2.65;;;;;;;27.04;43.92;100826.87;5096743;57;1141059;-67
2022/08/02 18:41:45;;;;;;;21.33;2.55;;;;;;;26.94;44.53;100830.08;5076223;57;1141053;-65
2022/08/02 18:46:50;;;;;;;21.68;3.42;;;;;;;26.85;44.90;100828.66;5075024;57;1141270;-66
2022/08/02 18:51:56;;;;;;;30.10;6.70;;;;;;;26.76;45.56;100836.73;5093002;57;1141053;-66
2022/08/02 18:57:02;;;;;;;10.40;3.40;;;;;;;26.71;45.97;100842.00;5108606;57;1140957;-64
2022/08/02 19:02:07;;;;;;;85.35;52.88;;;;;;;26.61;45.80;100848.39;5135084;56;1141136;-65
2022/08/02 19:07:13;;;;;;;22.42;4.87;;;;;;;26.48;45.76;100851.16;5117970;57;1143405;-64
2022/08/02 19:12:19;;;;;;;22.80;4.65;;;;;;;26.27;45.87;100859.89;5090236;57;1141092;-62
2022/08/02 19:17:25;;;;;;;34.60;7.65;;;;;;;26.18;46.64;100867.92;5086419;57;1141284;-65
2022/08/02 19:22:30;;;;;;;48.25;7.70;;;;;;;26.10;47.30;100865.98;5095723;57;1141057;-64
2022/08/02 19:27:36;;;;;;;36.10;9.10;;;;;;;25.96;47.87;100866.53;5097003;56;1141131;-64
2022/08/02 19:32:42;;;;;;;93.82;17.45;;;;;;;25.83;48.49;100871.42;5099674;56;1141036;-63
2022/08/02 19:37:48;;;;;;;95.20;12.60;;;;;;;25.70;49.55;100865.18;5103248;57;1143371;-63
2022/08/02 19:42:55;;;;;;;116.15;13.98;;;;;;;25.53;50.03;100862.02;5102283;57;1141089;-66
2022/08/02 19:48:10;;;;;;;82.10;12.63;;;;;;;25.36;50.33;100864.31;5100942;56;1143162;-65
2022/08/02 19:53:15;;;;;;;60.10;11.20;;;;;;;25.22;50.67;100860.76;5099022;57;1141070;-67
2022/08/02 19:58:21;;;;;;;42.23;7.97;;;;;;;25.10;51.04;100856.16;5095172;57;1141029;-65
2022/08/02 20:03:26;;;;;;;36.70;8.43;;;;;;;24.92;51.36;100857.23;5104034;57;1139008;-65
2022/08/02 20:08:33;;;;;;;43.02;7.53;;;;;;;24.84;52.01;100857.75;5119487;57;1138963;-63
2022/08/02 20:13:39;;;;;;;34.23;7.22;;;;;;;24.73;52.15;100861.56;5108205;57;1138962;-67
2022/08/02 20:18:44;;;;;;;40.00;8.60;;;;;;;24.66;52.64;100869.64;5111100;56;1139001;-64
2022/08/02 20:23:50;;;;;;;38.13;9.10;;;;;;;24.62;53.11;100872.43;5105956;57;1138951;-65
2022/08/02 20:28:56;;;;;;;27.50;7.60;;;;;;;24.41;53.03;100863.09;5022915;58;1138970;-64
2022/08/02 20:34:02;;;;;;;47.67;6.72;;;;;;;24.29;54.12;100868.22;5104957;57;1139103;-65
2022/08/02 20:39:08;;;;;;;49.08;6.58;;;;;;;24.24;54.61;100861.77;5111422;57;1139034;-63
2022/08/02 20:44:15;;;;;;;50.12;7.75;;;;;;;24.15;54.70;100868.63;5113607;57;1138930;-64
2022/08/02 20:49:26;;;;;;;37.75;4.67;;;;;;;24.10;54.98;100860.30;5104602;57;1138899;-65
2022/08/02 20:54:30;;;;;;;36.45;4.85;;;;;;;24.00;54.84;100853.57;5096409;57;1139021;-63
2022/08/02 20:59:37;;;;;;;38.92;6.60;;;;;;;23.89;54.93;100856.83;5087369;57;1139005;-64
2022/08/02 21:04:46;;;;;;;15.03;3.12;;;;;;;23.78;55.09;100854.16;5087793;57;1137015;-66
2022/08/02 21:09:51;;;;;;;20.76;3.78;;;;;;;23.67;55.49;100863.66;5098588;56;1140951;-66
2022/08/02 21:14:57;;;;;;;16.17;2.40;;;;;;;23.65;56.11;100863.02;5100371;56;1141076;-66
2022/08/02 21:20:03;;;;;;;19.33;3.50;;;;;;;23.66;56.25;100853.05;5110286;56;1141604;-65
2022/08/02 21:25:17;;;;;;;16.00;2.60;;;;;;;23.59;56.28;100858.38;5114030;56;1141055;-63
2022/08/02 21:30:17;;;;;;;20.92;3.30;;;;;;;23.55;56.71;100856.25;5086254;57;1140942;-64
2022/08/02 21:35:24;;;;;;;17.57;2.40;;;;;;;23.49;56.71;100858.69;5084008;57;1141279;-66
2022/08/02 21:40:30;;;;;;;9.85;2.22;;;;;;;23.39;56.93;100859.52;5080979;57;1141272;-64
2022/08/02 21:45:35;;;;;;;16.10;2.83;;;;;;;23.29;57.28;100860.37;5064374;57;1138997;-64
2022/08/02 21:50:41;;;;;;;15.28;2.55;;;;;;;23.21;57.53;100858.33;5089041;57;1141125;-64
2022/08/02 21:55:48;;;;;;;13.68;2.25;;;;;;;23.07;57.81;100864.92;5122015;56;1141349;-67
2022/08/02 22:00:53;;;;;;;10.28;2.05;;;;;;;23.01;58.41;100863.52;5173447;56;1141145;-64
2022/08/02 22:05:59;;;;;;;10.82;2.47;;;;;;;22.90;58.49;100863.52;5191474;56;1141266;-65
2022/08/02 22:11:05;;;;;;;14.10;2.83;;;;;;;22.77;58.95;100859.30;5232012;56;1141083;-63
2022/08/02 22:16:11;;;;;;;18.73;3.65;;;;;;;22.76;59.43;100868.41;5210201;56;1141121;-66
2022/08/02 22:21:17;;;;;;;12.30;3.08;;;;;;;22.73;59.55;100874.17;5115888;57;1141271;-66
2022/08/02 22:26:23;;;;;;;10.13;2.85;;;;;;;22.64;59.62;100885.56;5145906;57;1141219;-65
2022/08/02 22:31:29;;;;;;;18.07;2.67;;;;;;;22.57;59.98;100885.17;5213283;56;1141069;-64
2022/08/02 22:36:41;;;;;;;9.10;2.50;;;;;;;22.51;60.10;100893.48;5186965;56;1141096;-65
2022/08/02 22:41:48;;;;;;;8.55;2.45;;;;;;;22.41;60.16;100891.60;5154923;56;1139026;-65
2022/08/02 22:46:53;;;;;;;14.90;3.00;;;;;;;22.33;60.52;100897.08;5232118;56;1139172;-66
2022/08/02 22:51:59;;;;;;;34.73;3.15;;;;;;;22.25;60.77;100896.67;5186957;56;1141085;-67
2022/08/02 22:57:05;;;;;;;22.40;2.83;;;;;;;22.18;61.02;100902.46;5155969;56;1141060;-63
2022/08/02 23:02:11;;;;;;;14.28;2.65;;;;;;;22.11;61.21;100896.16;5153820;56;1141051;-66
2022/08/02 23:07:16;;;;;;;21.00;3.40;;;;;;;22.00;61.32;100902.81;5151530;56;1141117;-65
2022/08/02 23:12:22;;;;;;;17.82;3.08;;;;;;;21.91;61.88;100909.28;5151353;56;1141119;-66
2022/08/02 23:22:51;;;;;;;24.90;3.77;;;;;;;21.72;62.17;100909.78;5156005;56;1141113;-66
2022/08/02 23:27:57;;;;;;;26.65;2.75;;;;;;;21.56;62.61;100909.92;5149506;56;1141094;-63